createdAt,value
2022-08-19T00:02:12.494Z,76432.94
2022-08-19T00:04:47.590Z,76428.97
2022-08-19T00:07:20.886Z,76432.94
2022-08-19T00:09:53.539Z,76432.94
2022-08-19T00:12:29.494Z,76436.94
2022-08-19T00:15:02.129Z,76430.94
2022-08-19T00:17:34.795Z,76438.94
2022-08-19T00:20:11.542Z,76432.94
2022-08-19T00:22:46.560Z,76432.94
2022-08-19T00:25:30.159Z,76434.94
2022-08-19T00:28:05.306Z,76440.94
2022-08-19T00:30:38.267Z,76444.91
2022-08-19T00:33:11.737Z,76456.88
2022-08-19T00:35:44.361Z,76456.88
2022-08-19T00:38:16.935Z,76458.88
2022-08-19T00:41:09.622Z,76472.81
2022-08-19T00:43:42.404Z,76472.81
2022-08-19T00:46:14.990Z,76482.78
2022-08-19T00:48:47.523Z,76484.78
2022-08-19T00:51:20.166Z,76484.78
2022-08-19T00:53:53.867Z,76496.75
2022-08-19T00:56:27.914Z,76492.75
2022-08-19T00:59:02.737Z,76496.75
2022-08-19T01:01:38.390Z,76500.75
2022-08-19T01:04:11.200Z,76498.75
2022-08-19T01:06:43.995Z,76504.72
2022-08-19T01:09:18.235Z,76504.72
2022-08-19T01:11:52.187Z,76516.69
2022-08-19T01:14:26.270Z,76526.66
2022-08-19T01:17:01.024Z,76522.66
2022-08-19T01:19:44.759Z,76530.66
2022-08-19T01:22:45.565Z,76516.69
2022-08-19T01:25:30.420Z,76512.72
2022-08-19T01:28:09.904Z,76508.72
2022-08-19T01:30:50.896Z,76510.72
2022-08-19T01:33:23.891Z,76510.72
2022-08-19T01:36:09.772Z,76506.72
2022-08-19T01:38:44.774Z,76504.72
2022-08-19T01:41:18.972Z,76512.72
2022-08-19T01:44:13.664Z,76516.69
2022-08-19T01:46:48.850Z,76522.66
2022-08-19T01:49:26.117Z,76520.69
2022-08-19T01:52:01.979Z,76520.69
2022-08-19T01:54:34.771Z,76528.66
2022-08-19T01:57:13.419Z,76526.66
2022-08-19T01:59:46.709Z,76540.63
2022-08-19T02:02:19.278Z,76536.63
2022-08-19T02:04:51.822Z,76542.63
2022-08-19T02:07:25.029Z,76544.59
2022-08-19T02:09:58.703Z,76550.59
2022-08-19T02:12:36.299Z,76552.59
2022-08-19T02:15:11.100Z,76560.56
2022-08-19T02:17:43.779Z,76572.53
2022-08-19T02:20:17.194Z,76570.53
2022-08-19T02:22:49.708Z,76576.50
2022-08-19T02:25:22.299Z,76576.50
2022-08-19T02:27:55.001Z,76578.50
2022-08-19T02:30:28.029Z,76588.47
2022-08-19T02:33:00.870Z,76590.47
2022-08-19T02:35:33.601Z,76590.47
2022-08-19T02:38:24.766Z,76596.44
2022-08-19T02:41:05.429Z,76606.41
2022-08-19T02:43:39.494Z,76600.44
2022-08-19T02:46:24.936Z,76604.44
2022-08-19T02:49:03.038Z,76608.41
2022-08-19T02:51:42.271Z,76608.41
2022-08-19T02:54:15.991Z,76612.41
2022-08-19T02:56:48.604Z,76614.41
2022-08-19T02:59:23.099Z,76612.41
2022-08-19T03:01:55.769Z,76612.41
2022-08-19T03:04:28.451Z,76612.41
2022-08-19T03:07:10.651Z,76608.41
2022-08-19T03:09:43.914Z,76606.41
2022-08-19T03:12:16.450Z,76614.41
2022-08-19T03:14:49.196Z,76612.41
2022-08-19T03:17:21.798Z,76622.38
2022-08-19T03:19:54.740Z,76622.38
2022-08-19T03:22:27.414Z,76638.31
2022-08-19T03:25:00.314Z,76632.34
2022-08-19T03:27:34.366Z,76628.34
2022-08-19T03:30:08.206Z,76624.38
2022-08-19T03:32:45.693Z,76630.34
2022-08-19T03:35:18.285Z,76632.34
2022-08-19T03:37:51.782Z,76632.34
2022-08-19T03:40:24.382Z,76640.31
2022-08-19T03:42:57.794Z,76632.34
2022-08-19T03:45:30.627Z,76628.34
2022-08-19T03:48:03.660Z,76636.34
2022-08-19T03:50:41.843Z,76638.31
2022-08-19T03:53:14.393Z,76646.31
2022-08-19T03:55:46.878Z,76646.31
2022-08-19T03:58:19.418Z,76652.28
2022-08-19T04:00:52.092Z,76648.28
2022-08-19T04:03:27.622Z,76652.28
2022-08-19T04:06:00.129Z,76650.28
2022-08-19T04:08:32.688Z,76658.25
2022-08-19T04:11:10.075Z,76650.28
2022-08-19T04:13:44.470Z,76652.28
2022-08-19T04:16:17.051Z,76656.28
2022-08-19T04:18:50.144Z,76660.25
2022-08-19T04:21:27.461Z,76660.25
2022-08-19T04:24:00.330Z,76668.22
2022-08-19T04:26:37.699Z,76672.22
2022-08-19T04:29:18.992Z,76678.19
2022-08-19T04:31:54.491Z,76678.19
2022-08-19T04:34:30.516Z,76676.22
2022-08-19T04:37:15.038Z,76676.22
2022-08-19T04:40:06.381Z,76680.19
2022-08-19T04:42:41.764Z,76678.19
2022-08-19T04:45:15.308Z,76678.19
2022-08-19T04:47:58.349Z,76680.19
2022-08-19T04:50:31.905Z,76680.19
2022-08-19T04:53:06.020Z,76680.19
2022-08-19T04:55:43.358Z,76682.19
2022-08-19T04:58:17.400Z,76680.19
2022-08-19T05:00:50.199Z,76684.19
2022-08-19T05:03:22.754Z,76682.19
2022-08-19T05:05:55.365Z,76680.19
2022-08-19T05:08:31.530Z,76684.19
2022-08-19T05:11:26.289Z,76680.19
2022-08-19T05:13:59.204Z,76684.19
2022-08-19T05:16:31.770Z,76676.22
2022-08-19T05:19:23.119Z,76670.22
2022-08-19T05:22:14.365Z,76670.22
2022-08-19T05:25:09.371Z,76666.25
2022-08-19T05:27:40.812Z,76650.28
2022-08-19T05:30:14.202Z,76646.31
2022-08-19T05:32:46.765Z,76640.31
2022-08-19T05:35:19.861Z,76632.34
2022-08-19T05:37:55.003Z,76628.34
2022-08-19T05:40:31.734Z,76608.41
2022-08-19T05:43:07.545Z,76592.47
2022-08-19T05:45:43.071Z,76574.50
2022-08-19T05:48:15.648Z,76560.56
2022-08-19T05:50:51.172Z,76562.56
2022-08-19T05:53:23.671Z,76550.59
2022-08-19T05:55:56.285Z,76546.59
2022-08-19T05:58:30.641Z,76534.63
2022-08-19T06:01:06.638Z,76528.66
2022-08-19T06:03:40.533Z,76520.69
2022-08-19T06:06:17.481Z,76536.63
2022-08-19T06:08:51.913Z,76534.63
2022-08-19T06:11:37.731Z,76528.66
2022-08-19T06:14:16.944Z,76522.66
2022-08-19T06:16:52.215Z,76512.72
2022-08-19T06:19:25.349Z,76516.69
2022-08-19T06:22:00.312Z,76508.72
2022-08-19T06:24:33.258Z,76500.75
2022-08-19T06:27:08.730Z,76494.75
2022-08-19T06:29:41.253Z,76482.78
2022-08-19T06:32:19.259Z,76476.81
2022-08-19T06:34:51.865Z,76466.84
2022-08-19T06:37:24.728Z,76464.84
2022-08-19T06:39:57.267Z,76460.88
2022-08-19T06:42:30.273Z,76452.88
2022-08-19T06:45:09.412Z,76448.91
2022-08-19T06:47:49.296Z,76438.94
2022-08-19T06:50:24.993Z,76434.94
2022-08-19T06:52:57.734Z,76422.97
2022-08-19T06:55:33.963Z,76419.00
2022-08-19T06:58:06.670Z,76407.03
2022-08-19T07:00:39.433Z,76393.06
2022-08-19T07:03:13.412Z,76393.06
2022-08-19T07:05:46.328Z,76377.13
2022-08-19T07:08:18.981Z,76369.16
2022-08-19T07:10:51.579Z,76349.22
2022-08-19T07:13:24.840Z,76345.22
2022-08-19T07:15:57.531Z,76349.22
2022-08-19T07:18:30.097Z,76329.25
2022-08-19T07:21:23.357Z,76303.34
2022-08-19T07:24:00.954Z,76289.38
2022-08-19T07:26:42.187Z,76263.47
2022-08-19T07:29:15.879Z,76231.56
2022-08-19T07:31:48.856Z,76229.56
2022-08-19T07:34:26.247Z,76207.66
2022-08-19T07:36:58.990Z,76191.69
2022-08-19T07:39:35.171Z,76201.66
2022-08-19T07:42:13.315Z,76169.75
2022-08-19T07:44:49.946Z,76157.81
2022-08-19T07:47:47.712Z,76145.84
2022-08-19T07:50:19.332Z,76137.88
2022-08-19T07:52:52.803Z,76159.78
2022-08-19T07:55:41.264Z,76183.72
2022-08-19T07:58:19.783Z,76183.72
2022-08-19T08:00:52.486Z,76169.75
2022-08-19T08:03:46.607Z,76151.81
2022-08-19T08:06:37.868Z,76161.78
2022-08-19T08:09:13.155Z,76149.81
2022-08-19T08:12:01.922Z,76165.78
2022-08-19T08:14:47.488Z,76153.81
2022-08-19T08:17:31.053Z,76133.88
2022-08-19T08:20:17.442Z,76117.94
2022-08-19T08:23:08.838Z,76111.94
2022-08-19T08:25:41.605Z,76078.06
2022-08-19T08:28:17.549Z,76098.00
2022-08-19T08:30:51.341Z,76080.03
2022-08-19T08:33:33.725Z,76094.00
2022-08-19T08:36:07.691Z,76105.97
2022-08-19T08:38:46.249Z,76094.00
2022-08-19T08:41:48.221Z,76060.09
2022-08-19T08:47:32.455Z,76006.28
2022-08-19T08:50:29.939Z,75966.41
2022-08-19T08:53:06.858Z,75966.41
2022-08-19T08:55:42.378Z,75998.31
2022-08-19T08:58:31.629Z,76006.28
2022-08-19T09:01:04.149Z,76002.28
2022-08-19T09:03:41.054Z,75994.31
2022-08-19T09:06:23.009Z,75984.34
2022-08-19T09:09:12.105Z,75968.41
2022-08-19T09:12:13.026Z,75972.38
2022-08-19T09:15:05.279Z,75944.47
2022-08-19T09:17:39.390Z,75930.53
2022-08-19T09:20:22.785Z,75942.47
2022-08-19T09:22:55.523Z,75918.56
2022-08-19T09:25:29.688Z,75896.63
2022-08-19T09:28:22.037Z,75872.69
2022-08-19T09:30:55.273Z,75902.59
2022-08-19T09:33:27.775Z,75930.53
2022-08-19T09:36:08.577Z,75950.47
2022-08-19T09:38:43.736Z,75966.41
2022-08-19T09:41:23.822Z,75958.44
2022-08-19T09:43:58.974Z,75952.44
2022-08-19T09:46:31.671Z,75938.50
2022-08-19T09:49:07.068Z,75912.56
2022-08-19T09:51:39.663Z,75910.59
2022-08-19T09:54:12.221Z,75914.56
2022-08-19T09:56:45.414Z,75876.69
2022-08-19T09:59:18.045Z,75886.66
2022-08-19T10:01:51.905Z,75894.63
2022-08-19T10:04:44.528Z,75936.50
2022-08-19T10:07:17.075Z,75950.47
2022-08-19T10:09:50.422Z,75922.53
2022-08-19T10:12:23.515Z,75914.56
2022-08-19T10:14:59.625Z,75910.59
2022-08-19T10:17:34.502Z,75908.59
2022-08-19T10:20:07.946Z,75944.47
2022-08-19T10:22:40.919Z,75944.47
2022-08-19T10:25:15.267Z,75882.66
2022-08-19T10:27:51.407Z,75822.88
2022-08-19T10:30:24.910Z,75802.94
2022-08-19T10:32:57.605Z,75788.97
2022-08-19T10:35:30.485Z,75786.97
2022-08-19T10:38:04.169Z,75781.00
2022-08-19T10:40:36.902Z,75788.97
2022-08-19T10:43:09.450Z,75773.03
2022-08-19T10:45:52.525Z,75733.16
2022-08-19T10:48:25.672Z,75673.34
2022-08-19T10:51:22.858Z,75637.47
2022-08-19T10:53:57.391Z,75611.56
2022-08-19T10:56:49.689Z,75583.63
2022-08-19T10:59:31.440Z,75577.66
2022-08-19T11:02:13.856Z,75559.72
2022-08-19T11:04:46.367Z,75547.75
2022-08-19T11:07:19.482Z,75579.66
2022-08-19T11:09:52.205Z,75623.50
2022-08-19T11:12:25.440Z,75583.63
2022-08-19T11:14:57.952Z,75637.47
2022-08-19T11:17:32.827Z,75631.47
2022-08-19T11:20:06.656Z,75603.56
2022-08-19T11:22:41.835Z,75579.66
2022-08-19T11:25:14.781Z,75549.75
2022-08-19T11:27:47.781Z,75511.88
2022-08-19T11:30:20.520Z,75499.91
2022-08-19T11:32:53.022Z,75456.06
2022-08-19T11:35:25.646Z,75460.06
2022-08-19T11:38:02.278Z,75436.13
2022-08-19T11:40:34.831Z,75444.09
2022-08-19T11:43:07.361Z,75450.09
2022-08-19T11:45:39.863Z,75464.03
2022-08-19T11:48:12.421Z,75446.09
2022-08-19T11:50:45.004Z,75468.03
2022-08-19T11:53:20.975Z,75531.81
2022-08-19T11:55:57.477Z,75519.84
2022-08-19T11:58:30.936Z,75511.88
2022-08-19T12:01:08.661Z,75485.97
2022-08-19T12:03:41.574Z,75483.97
2022-08-19T12:06:26.442Z,75464.03
2022-08-19T12:09:05.938Z,75440.13
2022-08-19T12:11:41.391Z,75468.03
2022-08-19T12:14:15.057Z,75442.09
2022-08-19T12:16:48.656Z,75424.16
2022-08-19T12:19:25.510Z,75408.22
2022-08-19T12:22:03.851Z,75418.19
2022-08-19T12:24:36.776Z,75418.19
2022-08-19T12:27:12.673Z,75444.09
2022-08-19T12:29:45.532Z,75470.00
2022-08-19T12:32:18.201Z,75446.09
2022-08-19T12:34:50.854Z,75414.19
2022-08-19T12:37:23.802Z,75376.31
2022-08-19T12:39:56.411Z,75376.31
2022-08-19T12:42:29.476Z,75328.50
2022-08-19T12:45:01.989Z,75320.50
2022-08-19T12:47:34.577Z,75342.44
2022-08-19T12:50:10.592Z,75360.38
2022-08-19T12:52:43.358Z,75344.44
2022-08-19T12:55:15.988Z,75342.44
2022-08-19T12:57:49.565Z,75368.34
2022-08-19T13:00:23.270Z,75386.28
2022-08-19T13:02:56.351Z,75420.19
2022-08-19T13:05:34.360Z,75454.06
2022-08-19T13:08:06.873Z,75464.03
2022-08-19T13:10:39.417Z,75464.03
2022-08-19T13:13:12.311Z,75479.97
2022-08-19T13:15:46.128Z,75521.84
2022-08-19T13:18:18.649Z,75535.78
2022-08-19T13:20:52.766Z,75545.75
2022-08-19T13:23:25.778Z,75547.75
2022-08-19T13:26:01.640Z,75525.84
2022-08-19T13:28:54.259Z,75519.84
2022-08-19T13:32:09.872Z,75491.94
2022-08-19T13:34:47.575Z,75456.06
2022-08-19T13:37:40.088Z,75422.19
2022-08-19T13:40:24.903Z,75450.09
2022-08-19T13:42:58.347Z,75493.94
2022-08-19T13:45:34.918Z,75495.94
2022-08-19T13:48:09.567Z,75495.94
2022-08-19T13:50:47.639Z,75489.94
2022-08-19T13:53:20.257Z,75509.88
2022-08-19T13:55:54.443Z,75511.88
2022-08-19T13:58:26.996Z,75545.75
2022-08-19T14:01:00.214Z,75569.69
2022-08-19T14:03:34.807Z,75595.59
2022-08-19T14:06:07.362Z,75547.75
2022-08-19T14:08:46.021Z,75513.88
2022-08-19T14:11:19.215Z,75448.09
2022-08-19T14:13:51.909Z,75436.13
2022-08-19T14:16:24.493Z,75398.25
2022-08-19T14:18:57.071Z,75382.31
2022-08-19T14:21:29.758Z,75424.16
2022-08-19T14:24:02.530Z,75400.25
2022-08-19T14:26:35.148Z,75392.28
2022-08-19T14:29:07.662Z,75400.25
2022-08-19T14:31:43.430Z,75416.19
2022-08-19T14:34:15.987Z,75400.25
2022-08-19T14:36:48.846Z,75390.28
2022-08-19T14:39:22.516Z,75446.09
2022-08-19T14:41:55.035Z,75412.22
2022-08-19T14:44:27.574Z,75414.19
2022-08-19T14:47:00.440Z,75408.22
2022-08-19T14:49:42.266Z,75412.22
2022-08-19T14:52:19.593Z,75444.09
2022-08-19T14:54:52.381Z,75420.19
2022-08-19T14:57:24.935Z,75444.09
2022-08-19T14:59:58.125Z,75458.06
2022-08-19T15:02:34.586Z,75456.06
2022-08-19T15:05:08.550Z,75448.09
2022-08-19T15:07:41.898Z,75438.13
2022-08-19T15:10:15.658Z,75416.19
2022-08-19T15:12:51.694Z,75374.34
2022-08-19T15:15:24.574Z,75340.44
2022-08-19T15:18:03.003Z,75312.53
2022-08-19T15:20:35.672Z,75280.66
2022-08-19T15:23:08.238Z,75264.69
2022-08-19T15:25:42.356Z,75272.69
2022-08-19T15:28:17.226Z,75310.53
2022-08-19T15:30:50.951Z,75376.31
2022-08-19T15:33:23.551Z,75404.22
2022-08-19T15:35:56.099Z,75400.25
2022-08-19T15:38:28.698Z,75406.22
2022-08-19T15:41:23.204Z,75408.22
2022-08-19T15:44:10.904Z,75370.34
2022-08-19T15:46:47.153Z,75364.38
2022-08-19T15:49:20.307Z,75388.28
2022-08-19T15:51:57.907Z,75400.25
2022-08-19T15:54:30.440Z,75426.16
2022-08-19T15:57:21.311Z,75505.91
2022-08-19T16:00:12.510Z,75551.75
2022-08-19T16:03:03.932Z,75637.47
2022-08-19T16:05:55.388Z,75667.38
2022-08-19T16:08:27.878Z,75683.31
2022-08-19T16:11:00.439Z,75733.16
2022-08-19T16:13:32.973Z,75737.13
2022-08-19T16:16:07.253Z,75747.09
2022-08-19T16:18:39.918Z,75794.97
2022-08-19T16:21:13.906Z,75775.03
2022-08-19T16:23:49.281Z,75785.00
2022-08-19T16:26:21.798Z,75792.97
2022-08-19T16:28:56.481Z,75800.94
2022-08-19T16:31:29.987Z,75816.88
2022-08-19T16:34:02.786Z,75832.84
2022-08-19T16:36:35.916Z,75830.84
2022-08-19T16:39:13.298Z,75838.81
2022-08-19T16:41:46.332Z,75830.84
2022-08-19T16:44:20.921Z,75832.84
2022-08-19T16:46:58.961Z,75840.81
2022-08-19T16:49:54.572Z,75842.81
2022-08-19T16:52:26.908Z,75850.78
2022-08-19T16:54:59.445Z,75866.72
2022-08-19T16:57:33.281Z,75884.66
2022-08-19T17:00:10.584Z,75956.44
2022-08-19T17:02:43.102Z,76024.22
2022-08-19T17:05:15.617Z,76076.06
2022-08-19T17:07:48.186Z,76131.88
2022-08-19T17:10:20.882Z,76159.78
2022-08-19T17:12:54.833Z,76165.78
2022-08-19T17:15:27.539Z,76151.81
2022-08-19T17:18:03.062Z,76149.81
2022-08-19T17:20:36.052Z,76125.91
2022-08-19T17:23:12.924Z,76101.97
2022-08-19T17:25:47.800Z,76070.06
2022-08-19T17:28:25.827Z,76044.16
2022-08-19T17:30:58.580Z,76022.22
2022-08-19T17:33:31.871Z,76000.28
2022-08-19T17:36:06.795Z,75998.31
2022-08-19T17:38:39.580Z,75986.34
2022-08-19T17:41:12.183Z,75984.34
2022-08-19T17:43:45.144Z,75986.34
2022-08-19T17:46:18.832Z,76002.28
2022-08-19T17:48:57.631Z,75984.34
2022-08-19T17:51:33.181Z,76008.28
2022-08-19T17:54:06.480Z,76022.22
2022-08-19T17:56:39.333Z,76024.22
2022-08-19T17:59:14.267Z,76018.25
2022-08-19T18:01:52.643Z,76032.19
2022-08-19T18:04:27.152Z,76050.13
2022-08-19T18:07:03.437Z,76062.09
2022-08-19T18:09:42.523Z,76066.09
2022-08-19T18:12:16.346Z,76074.06
2022-08-19T18:14:48.928Z,76098.00
2022-08-19T18:17:23.195Z,76103.97
2022-08-19T18:19:56.370Z,76117.94
2022-08-19T18:22:36.265Z,76123.91
2022-08-19T18:25:19.278Z,76129.88
2022-08-19T18:27:56.645Z,76141.84
2022-08-19T18:30:34.494Z,76157.81
2022-08-19T18:33:15.501Z,76161.78
2022-08-19T18:35:52.015Z,76167.78
2022-08-19T18:38:43.305Z,76177.75
2022-08-19T18:41:34.735Z,76189.69
2022-08-19T18:44:25.969Z,76201.66
2022-08-19T18:47:19.889Z,76213.63
2022-08-19T18:49:52.882Z,76221.59
2022-08-19T18:52:27.139Z,76229.56
2022-08-19T18:54:59.946Z,76235.56
2022-08-19T18:57:32.713Z,76235.56
2022-08-19T19:00:06.889Z,76243.53
2022-08-19T19:02:39.816Z,76247.53
2022-08-19T19:05:14.948Z,76251.50
2022-08-19T19:07:48.538Z,76257.50
2022-08-19T19:10:21.376Z,76259.47
2022-08-19T19:12:54.488Z,76265.47
2022-08-19T19:15:29.354Z,76271.44
2022-08-19T19:18:02.141Z,76281.41
2022-08-19T19:20:36.366Z,76283.41
2022-08-19T19:23:09.579Z,76289.38
2022-08-19T19:25:49.668Z,76291.38
2022-08-19T19:28:28.344Z,76293.38
2022-08-19T19:31:01.167Z,76293.38
2022-08-19T19:33:33.932Z,76297.38
2022-08-19T19:36:06.935Z,76297.38
2022-08-19T19:38:47.708Z,76299.34
2022-08-19T19:41:24.470Z,76297.38
2022-08-19T19:44:29.799Z,76301.34
2022-08-19T19:46:55.800Z,76299.34
2022-08-19T19:49:31.822Z,76299.34
2022-08-19T19:52:04.436Z,76301.34
2022-08-19T19:54:37.776Z,76301.34
2022-08-19T19:57:11.317Z,76301.34
2022-08-19T19:59:44.819Z,76301.34
2022-08-19T20:02:25.362Z,76305.34
2022-08-19T20:04:58.878Z,76309.31
2022-08-19T20:07:50.296Z,76309.31
2022-08-19T20:10:23.362Z,76309.31
2022-08-19T20:12:56.909Z,76313.31
2022-08-19T20:15:31.387Z,76311.31
2022-08-19T20:18:04.806Z,76317.31
2022-08-19T20:20:37.513Z,76317.31
2022-08-19T20:23:10.908Z,76317.31
2022-08-19T20:25:43.727Z,76321.28
2022-08-19T20:28:17.899Z,76321.28
2022-08-19T20:30:50.844Z,76325.28
2022-08-19T20:33:23.612Z,76321.28
2022-08-19T20:35:56.386Z,76323.28
2022-08-19T20:38:29.187Z,76317.31
2022-08-19T20:41:03.239Z,76313.31
2022-08-19T20:43:36.122Z,76315.31
2022-08-19T20:46:09.386Z,76321.28
2022-08-19T20:48:43.092Z,76317.31
2022-08-19T20:51:16.021Z,76319.31
2022-08-19T20:53:48.749Z,76321.28
2022-08-19T20:56:21.831Z,76321.28
2022-08-19T20:58:59.711Z,76329.25
2022-08-19T21:01:32.678Z,76323.28
2022-08-19T21:04:06.182Z,76329.25
2022-08-19T21:06:39.851Z,76323.28
2022-08-19T21:09:14.971Z,76319.31
2022-08-19T21:11:47.906Z,76313.31
2022-08-19T21:14:20.573Z,76323.28
2022-08-19T21:16:53.677Z,76321.28
2022-08-19T21:19:26.217Z,76323.28
2022-08-19T21:22:00.861Z,76341.22
2022-08-19T21:24:33.845Z,76335.25
2022-08-19T21:27:06.764Z,76345.22
2022-08-19T21:29:40.548Z,76353.19
2022-08-19T21:32:14.294Z,76353.19
2022-08-19T21:34:47.611Z,76369.16
2022-08-19T21:37:24.927Z,76381.09
2022-08-19T21:39:58.392Z,76379.13
2022-08-19T21:42:31.293Z,76385.09
2022-08-19T21:45:05.961Z,76395.06
2022-08-19T21:47:38.883Z,76393.06
2022-08-19T21:50:12.641Z,76397.06
2022-08-19T21:52:46.993Z,76403.03
2022-08-19T21:55:20.835Z,76403.03
2022-08-19T21:57:54.934Z,76409.03
2022-08-19T22:00:32.215Z,76409.03
2022-08-19T22:03:05.189Z,76405.03
2022-08-19T22:05:38.124Z,76409.03
2022-08-19T22:08:11.217Z,76411.00
2022-08-19T22:10:44.170Z,76409.03
2022-08-19T22:13:20.318Z,76407.03
2022-08-19T22:15:55.122Z,76405.03
2022-08-19T22:18:28.266Z,76397.06
2022-08-19T22:21:06.397Z,76399.06
2022-08-19T22:23:44.432Z,76397.06
2022-08-19T22:26:18.381Z,76399.06
2022-08-19T22:28:51.082Z,76397.06
2022-08-19T22:31:23.718Z,76395.06
2022-08-19T22:33:56.953Z,76397.06
2022-08-19T22:36:31.767Z,76391.06
2022-08-19T22:39:05.367Z,76385.09
2022-08-19T22:41:40.957Z,76383.09
2022-08-19T22:44:13.749Z,76383.09
2022-08-19T22:46:46.758Z,76377.13
2022-08-19T22:49:19.611Z,76373.13
2022-08-19T22:52:10.710Z,76367.16
2022-08-19T22:54:53.170Z,76371.13
2022-08-19T22:57:25.979Z,76371.13
2022-08-19T23:00:01.275Z,76377.13
2022-08-19T23:02:52.245Z,76381.09
2022-08-19T23:05:28.723Z,76381.09
2022-08-19T23:08:01.293Z,76377.13
2022-08-19T23:10:34.086Z,76381.09
2022-08-19T23:13:07.978Z,76383.09
2022-08-19T23:15:40.661Z,76377.13
2022-08-19T23:18:14.313Z,76377.13
2022-08-19T23:20:47.372Z,76371.13
2022-08-19T23:23:24.656Z,76367.16
2022-08-19T23:25:57.639Z,76377.13
2022-08-19T23:28:48.854Z,76373.13
2022-08-19T23:31:21.988Z,76377.13
2022-08-19T23:33:54.767Z,76381.09
2022-08-19T23:36:27.407Z,76373.13
2022-08-19T23:39:00.883Z,76389.09
2022-08-19T23:41:33.533Z,76385.09
2022-08-19T23:44:06.692Z,76381.09
2022-08-19T23:46:55.349Z,76381.09
2022-08-19T23:49:28.214Z,76385.09
2022-08-19T23:52:00.868Z,76381.09
2022-08-19T23:54:42.776Z,76385.09
2022-08-19T23:57:16.590Z,76381.09
2022-08-19T23:59:49.880Z,76381.09
